sensor_id;sensor_type;location;lat;lon;timestamp;pressure;altitude;pressure_sealevel;temperature;humidity
67377;BME280;54261;46.086;6.588;2024-02-15T00:01:28;93002.81;;;8.45;33.71
67377;BME280;54261;46.086;6.588;2024-02-15T00:06:31;93007.72;;;8.90;32.98
67377;BME280;54261;46.086;6.588;2024-02-15T00:11:33;93001.84;;;9.08;32.03
67377;BME280;54261;46.086;6.588;2024-02-15T00:16:35;92982.03;;;9.23;31.55
67377;BME280;54261;46.086;6.588;2024-02-15T00:21:37;92977.47;;;9.09;32.08
67377;BME280;54261;46.086;6.588;2024-02-15T00:26:39;92983.81;;;8.80;32.56
67377;BME280;54261;46.086;6.588;2024-02-15T00:31:41;92969.81;;;8.69;32.76
67377;BME280;54261;46.086;6.588;2024-02-15T00:36:43;92984.56;;;9.00;32.36
67377;BME280;54261;46.086;6.588;2024-02-15T00:41:45;92974.63;;;8.86;32.43
67377;BME280;54261;46.086;6.588;2024-02-15T00:46:48;92975.06;;;9.08;32.17
67377;BME280;54261;46.086;6.588;2024-02-15T00:51:50;92970.81;;;9.48;31.10
67377;BME280;54261;46.086;6.588;2024-02-15T00:56:52;92973.16;;;8.61;32.41
67377;BME280;54261;46.086;6.588;2024-02-15T01:01:54;92949.00;;;8.66;32.22
67377;BME280;54261;46.086;6.588;2024-02-15T01:06:56;92952.88;;;8.74;31.76
67377;BME280;54261;46.086;6.588;2024-02-15T01:11:58;92953.47;;;8.85;32.08
67377;BME280;54261;46.086;6.588;2024-02-15T01:17:00;92952.44;;;8.67;32.43
67377;BME280;54261;46.086;6.588;2024-02-15T01:22:02;92939.00;;;8.39;32.86
67377;BME280;54261;46.086;6.588;2024-02-15T01:27:04;92960.41;;;8.39;32.76
67377;BME280;54261;46.086;6.588;2024-02-15T01:32:07;92958.94;;;7.70;33.69
67377;BME280;54261;46.086;6.588;2024-02-15T01:37:09;92972.16;;;6.88;35.50
67377;BME280;54261;46.086;6.588;2024-02-15T01:42:12;92979.66;;;7.59;34.50
67377;BME280;54261;46.086;6.588;2024-02-15T01:47:17;92967.94;;;7.79;33.90
67377;BME280;54261;46.086;6.588;2024-02-15T01:52:21;92967.75;;;7.94;34.20
67377;BME280;54261;46.086;6.588;2024-02-15T01:57:23;92967.84;;;8.42;33.65
67377;BME280;54261;46.086;6.588;2024-02-15T02:02:28;92968.72;;;8.37;33.10
67377;BME280;54261;46.086;6.588;2024-02-15T02:07:34;92952.34;;;8.25;33.25
67377;BME280;54261;46.086;6.588;2024-02-15T02:12:37;92949.38;;;7.88;33.33
67377;BME280;54261;46.086;6.588;2024-02-15T02:17:40;92917.47;;;7.97;33.46
67377;BME280;54261;46.086;6.588;2024-02-15T02:22:46;92884.41;;;7.87;32.63
67377;BME280;54261;46.086;6.588;2024-02-15T02:27:49;92915.63;;;8.11;33.29
67377;BME280;54261;46.086;6.588;2024-02-15T02:32:52;92923.91;;;8.29;32.97
67377;BME280;54261;46.086;6.588;2024-02-15T02:37:54;92916.78;;;8.05;32.81
67377;BME280;54261;46.086;6.588;2024-02-15T02:42:56;92903.44;;;7.66;33.87
67377;BME280;54261;46.086;6.588;2024-02-15T02:48:01;92902.34;;;7.87;32.95
67377;BME280;54261;46.086;6.588;2024-02-15T02:53:03;92913.13;;;8.01;33.20
67377;BME280;54261;46.086;6.588;2024-02-15T02:58:05;92920.00;;;8.40;33.03
67377;BME280;54261;46.086;6.588;2024-02-15T03:03:07;92912.38;;;8.14;33.15
67377;BME280;54261;46.086;6.588;2024-02-15T03:08:09;92906.72;;;8.35;33.13
67377;BME280;54261;46.086;6.588;2024-02-15T03:13:11;92910.41;;;8.20;32.53
67377;BME280;54261;46.086;6.588;2024-02-15T03:18:16;92907.69;;;7.87;32.32
67377;BME280;54261;46.086;6.588;2024-02-15T03:23:19;92909.31;;;7.44;33.72
67377;BME280;54261;46.086;6.588;2024-02-15T03:28:20;92900.53;;;7.44;33.64
67377;BME280;54261;46.086;6.588;2024-02-15T03:33:23;92915.59;;;7.34;33.76
67377;BME280;54261;46.086;6.588;2024-02-15T03:38:28;92918.22;;;7.59;33.54
67377;BME280;54261;46.086;6.588;2024-02-15T03:43:31;92904.00;;;7.83;33.22
67377;BME280;54261;46.086;6.588;2024-02-15T03:48:33;92909.19;;;7.74;33.17
67377;BME280;54261;46.086;6.588;2024-02-15T03:53:34;92911.22;;;7.82;32.91
67377;BME280;54261;46.086;6.588;2024-02-15T03:58:38;92911.13;;;7.92;32.42
67377;BME280;54261;46.086;6.588;2024-02-15T04:03:40;92907.47;;;7.83;31.97
67377;BME280;54261;46.086;6.588;2024-02-15T04:08:42;92917.94;;;8.18;31.53
67377;BME280;54261;46.086;6.588;2024-02-15T04:13:44;92918.13;;;8.41;31.35
67377;BME280;54261;46.086;6.588;2024-02-15T04:18:46;92923.38;;;8.46;30.92
67377;BME280;54261;46.086;6.588;2024-02-15T04:23:49;92926.97;;;8.55;30.38
67377;BME280;54261;46.086;6.588;2024-02-15T04:28:51;92926.00;;;8.65;30.51
67377;BME280;54261;46.086;6.588;2024-02-15T04:33:54;92928.72;;;8.93;29.93
67377;BME280;54261;46.086;6.588;2024-02-15T04:38:57;92921.69;;;7.59;32.60
67377;BME280;54261;46.086;6.588;2024-02-15T04:43:59;92914.31;;;7.51;32.78
67377;BME280;54261;46.086;6.588;2024-02-15T04:49:00;92923.19;;;7.85;32.02
67377;BME280;54261;46.086;6.588;2024-02-15T04:54:03;92917.56;;;8.25;31.75
67377;BME280;54261;46.086;6.588;2024-02-15T04:59:06;92893.16;;;7.74;32.05
67377;BME280;54261;46.086;6.588;2024-02-15T05:04:16;92888.31;;;8.14;31.92
67377;BME280;54261;46.086;6.588;2024-02-15T05:09:18;92863.78;;;7.55;31.46
67377;BME280;54261;46.086;6.588;2024-02-15T05:14:20;92884.78;;;7.80;32.00
67377;BME280;54261;46.086;6.588;2024-02-15T05:19:22;92884.81;;;8.00;31.75
67377;BME280;54261;46.086;6.588;2024-02-15T05:24:25;92875.91;;;7.85;31.68
67377;BME280;54261;46.086;6.588;2024-02-15T05:29:27;92852.66;;;7.86;31.88
67377;BME280;54261;46.086;6.588;2024-02-15T05:34:29;92869.06;;;7.79;32.10
67377;BME280;54261;46.086;6.588;2024-02-15T05:39:32;92861.97;;;8.07;31.03
67377;BME280;54261;46.086;6.588;2024-02-15T05:44:34;92859.09;;;7.65;32.04
67377;BME280;54261;46.086;6.588;2024-02-15T05:49:36;92870.03;;;8.21;30.90
67377;BME280;54261;46.086;6.588;2024-02-15T05:54:38;92863.78;;;7.93;31.58
67377;BME280;54261;46.086;6.588;2024-02-15T05:59:43;92865.09;;;7.57;32.39
67377;BME280;54261;46.086;6.588;2024-02-15T06:04:45;92849.47;;;7.64;33.07
67377;BME280;54261;46.086;6.588;2024-02-15T06:09:47;92842.19;;;7.13;33.33
67377;BME280;54261;46.086;6.588;2024-02-15T06:14:48;92820.38;;;7.05;32.83
67377;BME280;54261;46.086;6.588;2024-02-15T06:19:51;92824.44;;;7.22;31.96
67377;BME280;54261;46.086;6.588;2024-02-15T06:24:53;92812.53;;;7.33;32.20
67377;BME280;54261;46.086;6.588;2024-02-15T06:29:55;92807.47;;;7.51;31.94
67377;BME280;54261;46.086;6.588;2024-02-15T06:35:16;92806.19;;;8.01;31.05
67377;BME280;54261;46.086;6.588;2024-02-15T06:40:36;92782.19;;;8.29;31.47
67377;BME280;54261;46.086;6.588;2024-02-15T06:45:39;92783.44;;;7.51;28.71
67377;BME280;54261;46.086;6.588;2024-02-15T06:50:43;92784.31;;;7.65;28.37
67377;BME280;54261;46.086;6.588;2024-02-15T06:55:49;92781.34;;;8.47;29.46
67377;BME280;54261;46.086;6.588;2024-02-15T07:00:51;92765.06;;;9.00;27.66
67377;BME280;54261;46.086;6.588;2024-02-15T07:05:53;92765.94;;;9.46;27.29
67377;BME280;54261;46.086;6.588;2024-02-15T07:10:55;92761.09;;;8.13;29.79
67377;BME280;54261;46.086;6.588;2024-02-15T07:15:56;92763.75;;;8.13;30.75
67377;BME280;54261;46.086;6.588;2024-02-15T07:20:58;92757.44;;;8.37;31.29
67377;BME280;54261;46.086;6.588;2024-02-15T07:26:02;92738.00;;;8.73;29.62
67377;BME280;54261;46.086;6.588;2024-02-15T07:31:05;92764.25;;;8.15;26.48
67377;BME280;54261;46.086;6.588;2024-02-15T07:36:08;92750.19;;;8.79;28.93
67377;BME280;54261;46.086;6.588;2024-02-15T07:41:10;92746.63;;;8.70;28.55
67377;BME280;54261;46.086;6.588;2024-02-15T07:46:13;92766.44;;;9.11;28.21
67377;BME280;54261;46.086;6.588;2024-02-15T07:51:16;92776.16;;;7.37;31.06
67377;BME280;54261;46.086;6.588;2024-02-15T07:56:20;92792.25;;;7.32;31.88
67377;BME280;54261;46.086;6.588;2024-02-15T08:01:22;92782.38;;;7.85;31.43
67377;BME280;54261;46.086;6.588;2024-02-15T08:06:26;92785.19;;;8.27;31.30
67377;BME280;54261;46.086;6.588;2024-02-15T08:11:30;92779.69;;;9.16;29.96
67377;BME280;54261;46.086;6.588;2024-02-15T08:16:32;92777.31;;;9.74;29.59
67377;BME280;54261;46.086;6.588;2024-02-15T08:21:35;92728.50;;;9.55;28.52
67377;BME280;54261;46.086;6.588;2024-02-15T08:26:43;92788.78;;;9.66;28.43
67377;BME280;54261;46.086;6.588;2024-02-15T08:31:44;92799.00;;;5.83;34.49
67377;BME280;54261;46.086;6.588;2024-02-15T08:36:46;92761.53;;;6.97;33.33
67377;BME280;54261;46.086;6.588;2024-02-15T08:41:50;92795.78;;;7.47;32.85
67377;BME280;54261;46.086;6.588;2024-02-15T08:46:53;92797.91;;;8.16;31.98
67377;BME280;54261;46.086;6.588;2024-02-15T08:51:55;92796.09;;;9.01;29.75
67377;BME280;54261;46.086;6.588;2024-02-15T08:56:57;92795.59;;;9.72;29.96
67377;BME280;54261;46.086;6.588;2024-02-15T09:01:59;92789.19;;;9.82;29.03
67377;BME280;54261;46.086;6.588;2024-02-15T09:07:02;92777.75;;;10.13;29.83
67377;BME280;54261;46.086;6.588;2024-02-15T09:12:06;92773.09;;;10.28;29.97
67377;BME280;54261;46.086;6.588;2024-02-15T09:17:10;92764.25;;;10.27;29.98
67377;BME280;54261;46.086;6.588;2024-02-15T09:22:12;92767.78;;;10.86;29.81
67377;BME280;54261;46.086;6.588;2024-02-15T09:27:14;92731.53;;;10.48;30.37
67377;BME280;54261;46.086;6.588;2024-02-15T09:32:16;92746.09;;;10.65;29.40
67377;BME280;54261;46.086;6.588;2024-02-15T09:37:18;92750.53;;;11.54;28.74
67377;BME280;54261;46.086;6.588;2024-02-15T09:42:20;92740.41;;;12.42;28.19
67377;BME280;54261;46.086;6.588;2024-02-15T09:47:24;92740.97;;;12.57;28.23
67377;BME280;54261;46.086;6.588;2024-02-15T09:52:28;92737.31;;;10.82;29.43
67377;BME280;54261;46.086;6.588;2024-02-15T09:57:36;92734.75;;;7.02;36.07
67377;BME280;54261;46.086;6.588;2024-02-15T10:02:43;92733.25;;;10.03;32.90
67377;BME280;54261;46.086;6.588;2024-02-15T10:07:46;92730.72;;;6.42;37.44
67377;BME280;54261;46.086;6.588;2024-02-15T10:12:49;92735.97;;;6.47;37.08
67377;BME280;54261;46.086;6.588;2024-02-15T10:17:56;92725.28;;;5.74;38.92
67377;BME280;54261;46.086;6.588;2024-02-15T10:28:03;92713.69;;;4.84;40.74
67377;BME280;54261;46.086;6.588;2024-02-15T10:33:09;92715.25;;;4.91;41.25
67377;BME280;54261;46.086;6.588;2024-02-15T10:38:12;92716.38;;;4.24;41.32
67377;BME280;54261;46.086;6.588;2024-02-15T10:43:18;92716.97;;;4.71;41.21
67377;BME280;54261;46.086;6.588;2024-02-15T10:48:23;92710.16;;;5.34;41.82
67377;BME280;54261;46.086;6.588;2024-02-15T10:53:27;92704.34;;;5.91;39.31
67377;BME280;54261;46.086;6.588;2024-02-15T10:58:33;92699.47;;;7.24;37.27
67377;BME280;54261;46.086;6.588;2024-02-15T11:03:48;92691.34;;;7.48;36.95
67377;BME280;54261;46.086;6.588;2024-02-15T11:08:53;92677.53;;;7.60;36.82
67377;BME280;54261;46.086;6.588;2024-02-15T11:14:30;92680.72;;;7.29;37.42
67377;BME280;54261;46.086;6.588;2024-02-15T11:24:51;92636.25;;;6.86;37.44
67377;BME280;54261;46.086;6.588;2024-02-15T11:29:58;92640.59;;;8.74;35.60
67377;BME280;54261;46.086;6.588;2024-02-15T11:35:07;92628.09;;;8.33;35.96
67377;BME280;54261;46.086;6.588;2024-02-15T11:41:00;92611.13;;;8.52;35.82
67377;BME280;54261;46.086;6.588;2024-02-15T11:45:57;92604.34;;;7.75;37.51
67377;BME280;54261;46.086;6.588;2024-02-15T11:51:00;92596.78;;;9.07;34.74
67377;BME280;54261;46.086;6.588;2024-02-15T11:56:03;92590.88;;;7.66;37.77
67377;BME280;54261;46.086;6.588;2024-02-15T12:01:08;92582.59;;;8.10;35.96
67377;BME280;54261;46.086;6.588;2024-02-15T12:06:30;92582.19;;;8.17;36.31
67377;BME280;54261;46.086;6.588;2024-02-15T12:12:00;92560.81;;;8.76;34.44
67377;BME280;54261;46.086;6.588;2024-02-15T12:17:23;92567.56;;;6.59;39.03
67377;BME280;54261;46.086;6.588;2024-02-15T12:22:46;92559.38;;;7.21;36.80
67377;BME280;54261;46.086;6.588;2024-02-15T12:27:56;92556.13;;;8.82;34.12
67377;BME280;54261;46.086;6.588;2024-02-15T12:33:09;92531.03;;;7.68;35.82
67377;BME280;54261;46.086;6.588;2024-02-15T12:38:13;92541.66;;;10.63;32.00
67377;BME280;54261;46.086;6.588;2024-02-15T12:43:18;92538.16;;;6.64;36.97
67377;BME280;54261;46.086;6.588;2024-02-15T12:48:20;92556.72;;;5.49;39.34
67377;BME280;54261;46.086;6.588;2024-02-15T12:53:22;92560.19;;;8.79;34.89
67377;BME280;54261;46.086;6.588;2024-02-15T12:58:25;92564.59;;;7.13;38.17
67377;BME280;54261;46.086;6.588;2024-02-15T13:03:28;92552.66;;;6.19;40.57
67377;BME280;54261;46.086;6.588;2024-02-15T13:08:30;92566.63;;;8.05;37.67
67377;BME280;54261;46.086;6.588;2024-02-15T13:13:33;92560.66;;;6.77;40.42
67377;BME280;54261;46.086;6.588;2024-02-15T13:18:36;92548.16;;;7.66;39.15
67377;BME280;54261;46.086;6.588;2024-02-15T13:23:39;92547.47;;;6.28;40.31
67377;BME280;54261;46.086;6.588;2024-02-15T13:28:41;92557.31;;;8.53;36.10
67377;BME280;54261;46.086;6.588;2024-02-15T13:33:46;92550.16;;;11.65;32.23
67377;BME280;54261;46.086;6.588;2024-02-15T13:38:49;92546.34;;;12.35;29.67
67377;BME280;54261;46.086;6.588;2024-02-15T13:43:53;92550.88;;;9.54;32.82
67377;BME280;54261;46.086;6.588;2024-02-15T13:48:55;92543.84;;;7.23;35.13
67377;BME280;54261;46.086;6.588;2024-02-15T13:53:57;92528.41;;;7.06;35.46
67377;BME280;54261;46.086;6.588;2024-02-15T13:58:59;92513.94;;;8.56;34.16
67377;BME280;54261;46.086;6.588;2024-02-15T14:04:06;92503.13;;;11.50;30.67
67377;BME280;54261;46.086;6.588;2024-02-15T14:09:08;92514.41;;;7.71;34.59
67377;BME280;54261;46.086;6.588;2024-02-15T14:14:12;92514.69;;;9.74;32.18
67377;BME280;54261;46.086;6.588;2024-02-15T14:19:14;92508.72;;;12.05;29.65
67377;BME280;54261;46.086;6.588;2024-02-15T14:24:16;92511.22;;;13.41;28.97
67377;BME280;54261;46.086;6.588;2024-02-15T14:29:20;92491.75;;;11.06;30.18
67377;BME280;54261;46.086;6.588;2024-02-15T14:34:24;92490.22;;;12.46;29.99
67377;BME280;54261;46.086;6.588;2024-02-15T14:39:27;92487.28;;;13.27;28.04
67377;BME280;54261;46.086;6.588;2024-02-15T14:44:29;92500.53;;;12.23;28.64
67377;BME280;54261;46.086;6.588;2024-02-15T14:49:31;92513.22;;;10.26;32.01
67377;BME280;54261;46.086;6.588;2024-02-15T14:54:33;92506.38;;;9.04;35.01
67377;BME280;54261;46.086;6.588;2024-02-15T14:59:35;92522.66;;;12.50;29.95
67377;BME280;54261;46.086;6.588;2024-02-15T15:04:38;92519.16;;;13.72;28.63
67377;BME280;54261;46.086;6.588;2024-02-15T15:10:10;92512.94;;;10.72;32.30
67377;BME280;54261;46.086;6.588;2024-02-15T15:15:30;92529.56;;;12.81;30.05
67377;BME280;54261;46.086;6.588;2024-02-15T15:20:32;92526.06;;;13.48;30.00
67377;BME280;54261;46.086;6.588;2024-02-15T15:25:35;92518.09;;;14.51;28.55
67377;BME280;54261;46.086;6.588;2024-02-15T15:30:38;92529.13;;;10.05;33.64
67377;BME280;54261;46.086;6.588;2024-02-15T15:35:40;92522.00;;;12.32;30.30
67377;BME280;54261;46.086;6.588;2024-02-15T15:40:42;92521.06;;;13.96;28.35
67377;BME280;54261;46.086;6.588;2024-02-15T15:45:45;92536.44;;;12.27;30.10
67377;BME280;54261;46.086;6.588;2024-02-15T15:50:47;92540.44;;;11.43;32.61
67377;BME280;54261;46.086;6.588;2024-02-15T15:55:50;92523.22;;;11.44;32.04
67377;BME280;54261;46.086;6.588;2024-02-15T16:00:52;92526.09;;;12.59;30.54
67377;BME280;54261;46.086;6.588;2024-02-15T16:05:54;92513.53;;;13.18;28.73
67377;BME280;54261;46.086;6.588;2024-02-15T16:10:56;92525.03;;;12.94;28.58
67377;BME280;54261;46.086;6.588;2024-02-15T16:15:58;92526.59;;;12.52;29.01
67377;BME280;54261;46.086;6.588;2024-02-15T16:21:00;92532.09;;;13.78;28.01
67377;BME280;54261;46.086;6.588;2024-02-15T16:26:02;92524.66;;;14.00;27.75
67377;BME280;54261;46.086;6.588;2024-02-15T16:31:04;92529.03;;;14.30;27.27
67377;BME280;54261;46.086;6.588;2024-02-15T16:36:06;92515.50;;;14.42;26.87
67377;BME280;54261;46.086;6.588;2024-02-15T16:41:08;92527.22;;;13.96;27.50
67377;BME280;54261;46.086;6.588;2024-02-15T16:46:11;92518.38;;;14.08;27.23
67377;BME280;54261;46.086;6.588;2024-02-15T16:51:14;92530.56;;;13.56;27.96
67377;BME280;54261;46.086;6.588;2024-02-15T16:56:20;92537.50;;;12.98;29.30
67377;BME280;54261;46.086;6.588;2024-02-15T17:01:27;92545.53;;;12.65;30.18
67377;BME280;54261;46.086;6.588;2024-02-15T17:06:28;92538.84;;;13.05;29.23
67377;BME280;54261;46.086;6.588;2024-02-15T17:11:34;92536.00;;;13.22;28.81
67377;BME280;54261;46.086;6.588;2024-02-15T17:16:37;92549.47;;;13.22;29.26
67377;BME280;54261;46.086;6.588;2024-02-15T17:21:40;92552.72;;;12.94;30.11
67377;BME280;54261;46.086;6.588;2024-02-15T17:26:43;92527.97;;;12.58;30.95
67377;BME280;54261;46.086;6.588;2024-02-15T17:31:49;92527.69;;;11.31;33.23
67377;BME280;54261;46.086;6.588;2024-02-15T17:36:51;92535.88;;;11.82;32.11
67377;BME280;54261;46.086;6.588;2024-02-15T17:41:53;92537.38;;;10.88;33.81
67377;BME280;54261;46.086;6.588;2024-02-15T17:46:55;92530.59;;;10.82;32.99
67377;BME280;54261;46.086;6.588;2024-02-15T17:51:58;92534.38;;;10.54;34.47
67377;BME280;54261;46.086;6.588;2024-02-15T17:57:00;92532.03;;;11.53;32.63
67377;BME280;54261;46.086;6.588;2024-02-15T18:02:02;92544.31;;;10.89;34.00
67377;BME280;54261;46.086;6.588;2024-02-15T18:07:04;92540.69;;;10.23;35.58
67377;BME280;54261;46.086;6.588;2024-02-15T18:12:06;92544.59;;;10.17;35.96
67377;BME280;54261;46.086;6.588;2024-02-15T18:17:08;92549.38;;;10.29;35.78
67377;BME280;54261;46.086;6.588;2024-02-15T18:22:10;92542.56;;;10.23;35.08
67377;BME280;54261;46.086;6.588;2024-02-15T18:27:12;92541.72;;;9.55;36.76
67377;BME280;54261;46.086;6.588;2024-02-15T18:32:14;92536.75;;;9.71;36.42
67377;BME280;54261;46.086;6.588;2024-02-15T18:37:18;92537.38;;;10.26;36.37
67377;BME280;54261;46.086;6.588;2024-02-15T18:42:20;92525.25;;;10.73;34.13
67377;BME280;54261;46.086;6.588;2024-02-15T18:47:26;92530.78;;;10.41;34.86
67377;BME280;54261;46.086;6.588;2024-02-15T18:52:29;92517.47;;;11.15;32.63
67377;BME280;54261;46.086;6.588;2024-02-15T18:57:31;92495.69;;;10.99;32.15
67377;BME280;54261;46.086;6.588;2024-02-15T19:02:32;92483.16;;;11.21;31.90
67377;BME280;54261;46.086;6.588;2024-02-15T19:07:35;92498.41;;;11.47;31.51
67377;BME280;54261;46.086;6.588;2024-02-15T19:12:37;92487.94;;;11.54;30.98
67377;BME280;54261;46.086;6.588;2024-02-15T19:17:40;92471.94;;;11.19;30.76
67377;BME280;54261;46.086;6.588;2024-02-15T19:22:42;92460.03;;;11.38;31.02
67377;BME280;54261;46.086;6.588;2024-02-15T19:27:44;92413.56;;;11.37;30.63
67377;BME280;54261;46.086;6.588;2024-02-15T19:32:50;92470.88;;;11.80;29.46
67377;BME280;54261;46.086;6.588;2024-02-15T19:37:52;92459.97;;;11.77;29.70
67377;BME280;54261;46.086;6.588;2024-02-15T19:42:54;92429.03;;;10.93;30.62
67377;BME280;54261;46.086;6.588;2024-02-15T19:47:57;92389.88;;;11.00;30.35
67377;BME280;54261;46.086;6.588;2024-02-15T19:52:59;92449.56;;;11.75;29.64
67377;BME280;54261;46.086;6.588;2024-02-15T19:58:01;92440.44;;;11.67;28.56
67377;BME280;54261;46.086;6.588;2024-02-15T20:03:03;92454.22;;;12.17;28.24
67377;BME280;54261;46.086;6.588;2024-02-15T20:08:06;92455.47;;;12.20;27.77
67377;BME280;54261;46.086;6.588;2024-02-15T20:13:08;92447.00;;;12.30;28.13
67377;BME280;54261;46.086;6.588;2024-02-15T20:18:10;92442.25;;;12.27;28.58
67377;BME280;54261;46.086;6.588;2024-02-15T20:23:12;92462.16;;;12.56;28.75
67377;BME280;54261;46.086;6.588;2024-02-15T20:28:14;92471.84;;;12.48;28.10
67377;BME280;54261;46.086;6.588;2024-02-15T20:33:16;92471.69;;;12.32;28.16
67377;BME280;54261;46.086;6.588;2024-02-15T20:38:20;92509.75;;;10.87;31.10
67377;BME280;54261;46.086;6.588;2024-02-15T20:43:29;92490.06;;;11.31;30.70
67377;BME280;54261;46.086;6.588;2024-02-15T20:48:32;92495.97;;;11.54;30.11
67377;BME280;54261;46.086;6.588;2024-02-15T20:53:34;92396.44;;;11.12;30.11
67377;BME280;54261;46.086;6.588;2024-02-15T20:58:35;92504.19;;;12.18;29.79
67377;BME280;54261;46.086;6.588;2024-02-15T21:03:37;92517.66;;;12.18;29.94
67377;BME280;54261;46.086;6.588;2024-02-15T21:08:40;92519.88;;;12.16;29.87
67377;BME280;54261;46.086;6.588;2024-02-15T21:13:42;92509.16;;;11.38;30.97
67377;BME280;54261;46.086;6.588;2024-02-15T21:18:46;92525.69;;;11.97;29.83
67377;BME280;54261;46.086;6.588;2024-02-15T21:23:49;92522.25;;;11.49;30.61
67377;BME280;54261;46.086;6.588;2024-02-15T21:28:52;92505.66;;;11.46;30.17
67377;BME280;54261;46.086;6.588;2024-02-15T21:33:55;92507.59;;;11.37;30.97
67377;BME280;54261;46.086;6.588;2024-02-15T21:38:59;92510.84;;;11.60;30.20
67377;BME280;54261;46.086;6.588;2024-02-15T21:44:01;92519.41;;;11.45;30.08
67377;BME280;54261;46.086;6.588;2024-02-15T21:49:03;92507.38;;;10.77;31.54
67377;BME280;54261;46.086;6.588;2024-02-15T21:54:05;92462.09;;;10.23;32.10
67377;BME280;54261;46.086;6.588;2024-02-15T21:59:08;92498.00;;;9.77;33.68
67377;BME280;54261;46.086;6.588;2024-02-15T22:04:13;92514.34;;;10.34;32.83
67377;BME280;54261;46.086;6.588;2024-02-15T22:09:16;92462.88;;;9.97;33.22
67377;BME280;54261;46.086;6.588;2024-02-15T22:14:18;92507.09;;;10.52;33.03
67377;BME280;54261;46.086;6.588;2024-02-15T22:19:19;92514.03;;;10.62;32.87
67377;BME280;54261;46.086;6.588;2024-02-15T22:24:22;92495.53;;;10.87;31.56
67377;BME280;54261;46.086;6.588;2024-02-15T22:29:24;92506.47;;;10.20;33.27
67377;BME280;54261;46.086;6.588;2024-02-15T22:34:27;92495.72;;;10.11;33.50
67377;BME280;54261;46.086;6.588;2024-02-15T22:39:29;92501.56;;;10.40;33.11
67377;BME280;54261;46.086;6.588;2024-02-15T22:44:31;92500.31;;;10.55;32.68
67377;BME280;54261;46.086;6.588;2024-02-15T22:49:35;92501.25;;;10.50;32.83
67377;BME280;54261;46.086;6.588;2024-02-15T22:54:38;92504.88;;;10.54;32.35
67377;BME280;54261;46.086;6.588;2024-02-15T22:59:44;92501.53;;;10.93;32.30
67377;BME280;54261;46.086;6.588;2024-02-15T23:04:46;92490.66;;;10.10;33.29
67377;BME280;54261;46.086;6.588;2024-02-15T23:09:49;92507.66;;;9.96;33.18
67377;BME280;54261;46.086;6.588;2024-02-15T23:14:51;92506.00;;;10.18;32.26
67377;BME280;54261;46.086;6.588;2024-02-15T23:19:52;92502.97;;;10.19;32.66
67377;BME280;54261;46.086;6.588;2024-02-15T23:24:54;92504.03;;;10.01;32.56
67377;BME280;54261;46.086;6.588;2024-02-15T23:29:58;92471.22;;;9.95;32.21
67377;BME280;54261;46.086;6.588;2024-02-15T23:35:01;92494.63;;;10.03;33.07
67377;BME280;54261;46.086;6.588;2024-02-15T23:40:03;92495.56;;;10.08;31.98
67377;BME280;54261;46.086;6.588;2024-02-15T23:45:21;92506.75;;;10.10;32.52
67377;BME280;54261;46.086;6.588;2024-02-15T23:50:24;92497.31;;;10.47;31.65
67377;BME280;54261;46.086;6.588;2024-02-15T23:55:29;92487.22;;;10.44;31.08
